| time (UTC) | temp F | wind direction | speed MPH | gust MPH | rain 1hr in | rain 24hr in | rain mn in | humidity % | barometer mb |
| 20260906224349 | 108 | 236 | 2.0 | 2.0 | 0.00 | 0.00 | 0.00 | 30 | 1009.2 |
| 20260906223845 | 108 | 226 | 1.0 | 2.0 | 0.00 | 0.00 | 0.00 | 29 | 1009.3 |
| 20260906223341 | 108 | 287 | 1.0 | 2.0 | 0.00 | 0.00 | 0.00 | 29 | 1009.4 |
| 20260906222839 | 109 | 251 | 1.0 | 2.0 | 0.00 | 0.00 | 0.00 | 29 | 1009.3 |
| 20260906222338 | 109 | 283 | 1.0 | 1.0 | 0.00 | 0.00 | 0.00 | 29 | 1009.3 |
| 20260906221836 | 109 | 256 | 1.0 | 1.0 | 0.00 | 0.00 | 0.00 | 28 | 1009.4 |
| 20260906221336 | 108 | 117 | 1.0 | 2.0 | 0.00 | 0.00 | 0.00 | 29 | 1009.3 |
| 20260906220831 | 108 | 243 | 2.0 | 2.0 | 0.00 | 0.00 | 0.00 | 29 | 1009.6 |
| 20260906220326 | 109 | 241 | 4.0 | 8.0 | 0.00 | 0.00 | 0.00 | 28 | 1009.3 |
| 20260906215825 | 107 | 253 | 1.0 | 1.0 | 0.00 | 0.00 | 0.00 | 30 | 1009.3 |
| 20260906215320 | 109 | 268 | 2.0 | 2.0 | 0.00 | 0.00 | 0.00 | 29 | 1009.1 |
| 20260906214818 | 109 | 241 | 2.0 | 2.0 | 0.00 | 0.00 | 0.00 | 28 | 1009.3 |
| 20260906214314 | 107 | 247 | 1.0 | 2.0 | 0.00 | 0.00 | 0.00 | 30 | 1009.3 |
| 20260906213813 | 106 | 218 | 2.0 | 2.0 | 0.00 | 0.00 | 0.00 | 30 | 1009.4 |
| 20260906213312 | 106 | 191 | 4.0 | 4.0 | 0.00 | 0.00 | 0.00 | 30 | 1009.4 |
| 20260906212810 | 106 | 250 | 1.0 | 2.0 | 0.00 | 0.00 | 0.00 | 31 | 1009.4 |
| 20260906212306 | 107 | 234 | 3.0 | 4.0 | 0.00 | 0.00 | 0.00 | 30 | 1009.7 |
| 20260906211805 | 107 | 268 | 1.0 | 1.0 | 0.00 | 0.00 | 0.00 | 31 | 1009.8 |
| 20260906211300 | 107 | 315 | 1.0 | 1.0 | 0.00 | 0.00 | 0.00 | 30 | 1010.0 |
| 20260906210755 | 107 | 240 | 1.0 | 2.0 | 0.00 | 0.00 | 0.00 | 28 | 1009.9 |
| 20260906210255 | 107 | 243 | 2.0 | 3.0 | 0.00 | 0.00 | 0.00 | 31 | 1010.2 |
| 20260906205750 | 106 | 284 | 1.0 | 2.0 | 0.00 | 0.00 | 0.00 | 33 | 1010.2 |
| 20260906205247 | 105 | 239 | 4.0 | 6.0 | 0.00 | 0.00 | 0.00 | 33 | 1010.2 |
| 20260906204742 | 106 | 306 | 2.0 | 2.0 | 0.00 | 0.00 | 0.00 | 31 | 1010.4 |
| 20260906204241 | 106 | 246 | 1.0 | 2.0 | 0.00 | 0.00 | 0.00 | 31 | 1010.4 |
| 20260906203740 | 106 | 218 | 6.0 | 7.0 | 0.00 | 0.00 | 0.00 | 32 | 1010.5 |
| 20260906203236 | 106 | 306 | 3.0 | 3.0 | 0.00 | 0.00 | 0.00 | 32 | 1010.4 |
| 20260906202733 | 105 | 207 | 2.0 | 3.0 | 0.00 | 0.00 | 0.00 | 34 | 1010.5 |
| 20260906202232 | 106 | 241 | 2.0 | 3.0 | 0.00 | 0.00 | 0.00 | 32 | 1010.6 |
| 20260906201727 | 106 | 247 | 2.0 | 3.0 | 0.00 | 0.00 | 0.00 | 32 | 1010.7 |
| 20260906201226 | 106 | 186 | 2.0 | 3.0 | 0.00 | 0.00 | 0.00 | 33 | 1010.5 |
| 20260906200722 | 105 | 266 | 2.0 | 3.0 | 0.00 | 0.00 | 0.00 | 33 | 1010.8 |
| 20260906200218 | 106 | 235 | 4.0 | 6.0 | 0.00 | 0.00 | 0.00 | 33 | 1010.9 |
| 20260906195713 | 107 | 204 | 2.0 | 2.0 | 0.00 | 0.00 | 0.00 | 32 | 1010.9 |
| 20260906195209 | 106 | 258 | 2.0 | 3.0 | 0.00 | 0.00 | 0.00 | 34 | 1010.9 |
| 20260906194705 | 104 | 272 | 0.0 | 1.0 | 0.00 | 0.00 | 0.00 | 35 | 1010.9 |
| 20260906194200 | 104 | 263 | 1.0 | 2.0 | 0.00 | 0.00 | 0.00 | 35 | 1011.1 |
| 20260906193655 | 104 | 188 | 3.0 | 3.0 | 0.00 | 0.00 | 0.00 | 34 | 1011.0 |
| 20260906193150 | 103 | 224 | 3.0 | 4.0 | 0.00 | 0.00 | 0.00 | 36 | 1011.1 |
| 20260906192646 | 103 | 183 | 2.0 | 3.0 | 0.00 | 0.00 | 0.00 | 36 | 1011.2 |
| 20260906192145 | 104 | 250 | 4.0 | 4.0 | 0.00 | 0.00 | 0.00 | 35 | 1011.3 |
| 20260906191640 | 104 | 281 | 0.0 | 0.0 | 0.00 | 0.00 | 0.00 | 35 | 1011.5 |
| 20260906191140 | 104 | 278 | 1.0 | 2.0 | 0.00 | 0.00 | 0.00 | 34 | 1011.4 |
| 20260906190634 | 104 | 266 | 1.0 | 1.0 | 0.00 | 0.00 | 0.00 | 35 | 1011.4 |
| 20260906190129 | 104 | 269 | 2.0 | 3.0 | 0.00 | 0.00 | 0.00 | 35 | 1011.5 |
| 20260906185627 | 104 | 258 | 1.0 | 2.0 | 0.00 | 0.00 | 0.00 | 36 | 1011.5 |
| 20260906185127 | 104 | 241 | 3.0 | 4.0 | 0.00 | 0.00 | 0.00 | 36 | 1011.5 |
| 20260906184622 | 103 | 241 | 4.0 | 6.0 | 0.00 | 0.00 | 0.00 | 35 | 1011.6 |
| 20260906184117 | 102 | 245 | 2.0 | 2.0 | 0.00 | 0.00 | 0.00 | 37 | 1011.7 |
| 20260906183613 | 102 | 249 | 1.0 | 3.0 | 0.00 | 0.00 | 0.00 | 36 | 1012.0 |
| 20260906183109 | 103 | 28 | 1.0 | 2.0 | 0.00 | 0.00 | 0.00 | 35 | 1011.8 |
| 20260906182603 | 102 | 196 | 2.0 | 3.0 | 0.00 | 0.00 | 0.00 | 36 | 1011.9 |
| 20260906182100 | 102 | 293 | 1.0 | 2.0 | 0.00 | 0.00 | 0.00 | 37 | 1011.9 |
| 20260906181555 | 102 | 283 | 4.0 | 4.0 | 0.00 | 0.00 | 0.00 | 36 | 1012.0 |
| 20260906181051 | 102 | 296 | 1.0 | 1.0 | 0.00 | 0.00 | 0.00 | 36 | 1012.3 |
| 20260906180551 | 102 | 214 | 2.0 | 2.0 | 0.00 | 0.00 | 0.00 | 37 | 1012.1 |
| 20260906180050 | 102 | 220 | 3.0 | 4.0 | 0.00 | 0.00 | 0.00 | 37 | 1012.2 |
| 20260906175549 | 102 | 226 | 2.0 | 2.0 | 0.00 | 0.00 | 0.00 | 38 | 1012.1 |
| 20260906175044 | 102 | 166 | 4.0 | 7.0 | 0.00 | 0.00 | 0.00 | 37 | 1012.4 |
| 20260906174542 | 101 | 236 | 1.0 | 2.0 | 0.00 | 0.00 | 0.00 | 38 | 1012.4 |
| 20260906174037 | 101 | 213 | 0.0 | 1.0 | 0.00 | 0.00 | 0.00 | 39 | 1012.6 |
| 20260906173532 | 101 | 251 | 1.0 | 1.0 | 0.00 | 0.00 | 0.00 | 39 | 1012.5 |
| 20260906173029 | 101 | 30 | 1.0 | 2.0 | 0.00 | 0.00 | 0.00 | 39 | 1012.5 |
| 20260906172528 | 100 | 202 | 1.0 | 2.0 | 0.00 | 0.00 | 0.00 | 40 | 1012.7 |
| 20260906172024 | 101 | 289 | 2.0 | 3.0 | 0.00 | 0.00 | 0.00 | 39 | 1012.8 |
| 20260906171518 | 101 | 238 | 1.0 | 1.0 | 0.00 | 0.00 | 0.00 | 39 | 1012.8 |
| 20260906171014 | 100 | 247 | 1.0 | 1.0 | 0.00 | 0.00 | 0.00 | 40 | 1012.9 |
| 20260906170510 | 100 | 200 | 3.0 | 3.0 | 0.00 | 0.00 | 0.00 | 41 | 1013.0 |
| 20260906170008 | 100 | 69 | 2.0 | 2.0 | 0.00 | 0.00 | 0.00 | 41 | 1012.9 |
| 20260906165506 | 100 | 207 | 3.0 | 4.0 | 0.00 | 0.00 | 0.00 | 40 | 1012.8 |
| 20260906165000 | 100 | 196 | 2.0 | 3.0 | 0.00 | 0.00 | 0.00 | 40 | 1012.9 |
| 20260906164459 | 100 | 297 | 1.0 | 2.0 | 0.00 | 0.00 | 0.00 | 42 | 1013.3 |
| 20260906163956 | 99 | 258 | 2.0 | 2.0 | 0.00 | 0.00 | 0.00 | 42 | 1013.1 |
| 20260906163451 | 99 | 206 | 3.0 | 3.0 | 0.00 | 0.00 | 0.00 | 42 | 1013.1 |
| 20260906162950 | 99 | 254 | 2.0 | 2.0 | 0.00 | 0.00 | 0.00 | 43 | 1013.0 |
| 20260906162449 | 99 | 198 | 3.0 | 4.0 | 0.00 | 0.00 | 0.00 | 43 | 1012.9 |
| 20260906161944 | 99 | 253 | 0.0 | 0.0 | 0.00 | 0.00 | 0.00 | 43 | 1013.0 |
| 20260906161443 | 99 | 252 | 2.0 | 3.0 | 0.00 | 0.00 | 0.00 | 42 | 1013.0 |
| 20260906160942 | 99 | 214 | 2.0 | 3.0 | 0.00 | 0.00 | 0.00 | 42 | 1012.9 |
| 20260906160436 | 98 | 251 | 3.0 | 3.0 | 0.00 | 0.00 | 0.00 | 43 | 1013.0 |
| 20260906155935 | 98 | 237 | 4.0 | 6.0 | 0.00 | 0.00 | 0.00 | 42 | 1012.8 |
| 20260906155434 | 98 | 190 | 3.0 | 3.0 | 0.00 | 0.00 | 0.00 | 44 | 1012.8 |
| 20260906154930 | 98 | 228 | 1.0 | 2.0 | 0.00 | 0.00 | 0.00 | 45 | 1012.8 |
| 20260906154431 | 96 | 6 | 2.0 | 2.0 | 0.00 | 0.00 | 0.00 | 46 | 1012.9 |
| 20260906153929 | 97 | 312 | 1.0 | 1.0 | 0.00 | 0.00 | 0.00 | 46 | 1012.8 |
| 20260906153428 | 97 | 11 | 1.0 | 1.0 | 0.00 | 0.00 | 0.00 | 45 | 1012.8 |
| 20260906152923 | 97 | 330 | 2.0 | 2.0 | 0.00 | 0.00 | 0.00 | 45 | 1012.9 |
| 20260906152418 | 97 | 256 | 1.0 | 2.0 | 0.00 | 0.00 | 0.00 | 47 | 1013.0 |
| 20260906151917 | 96 | 274 | 0.0 | 0.0 | 0.00 | 0.00 | 0.00 | 49 | 1012.8 |
| 20260906151413 | 97 | 298 | 0.0 | 1.0 | 0.00 | 0.00 | 0.00 | 47 | 1012.6 |
| 20260906150909 | 96 | 246 | 1.0 | 2.0 | 0.00 | 0.00 | 0.00 | 49 | 1012.5 |
| 20260906150409 | 96 | 267 | 1.0 | 1.0 | 0.00 | 0.00 | 0.00 | 50 | 1012.3 |
| 20260906145908 | 95 | 291 | 0.0 | 0.0 | 0.00 | 0.00 | 0.00 | 51 | 1012.6 |
| 20260906145407 | 94 | 257 | 0.0 | 1.0 | 0.00 | 0.00 | 0.00 | 53 | 1012.5 |
| 20260906144902 | 94 | 278 | 0.0 | 1.0 | 0.00 | 0.00 | 0.00 | 52 | 1012.5 |
| 20260906144357 | 94 | 280 | 0.0 | 0.0 | 0.00 | 0.00 | 0.00 | 52 | 1012.5 |
| 20260906143852 | 94 | 303 | 0.0 | 0.0 | 0.00 | 0.00 | 0.00 | 53 | 1012.5 |
| 20260906143348 | 93 | 258 | 0.0 | 0.0 | 0.00 | 0.00 | 0.00 | 55 | 1012.8 |
| 20260906142844 | 92 | 264 | 0.0 | 1.0 | 0.00 | 0.00 | 0.00 | 56 | 1012.8 |
| 20260906142338 | 91 | 268 | 0.0 | 1.0 | 0.00 | 0.00 | 0.00 | 60 | 1012.8 |
| 20260906141838 | 89 | 24 | 0.0 | 0.0 | 0.00 | 0.00 | 0.00 | 61 | 1012.8 |
| 20260906141332 | 87 | 21 | 0.0 | 0.0 | 0.00 | 0.00 | 0.00 | 65 | 1012.9 |
| 20260906140832 | 85 | 313 | 0.0 | 0.0 | 0.00 | 0.00 | 0.00 | 69 | 1012.8 |
| 20260906140322 | 85 | 281 | 0.0 | 0.0 | 0.00 | 0.00 | 0.00 | 70 | 1012.8 |
| 20260906135819 | 84 | 309 | 0.0 | 0.0 | 0.00 | 0.00 | 0.00 | 71 | 1012.9 |
| 20260906135314 | 84 | 196 | 0.0 | 1.0 | 0.00 | 0.00 | 0.00 | 71 | 1012.8 |
| 20260906134809 | 84 | 248 | 0.0 | 0.0 | 0.00 | 0.00 | 0.00 | 72 | 1012.7 |
| 20260906134304 | 83 | 270 | 0.0 | 0.0 | 0.00 | 0.00 | 0.00 | 73 | 1012.6 |
| 20260906133800 | 83 | 309 | 0.0 | 0.0 | 0.00 | 0.00 | 0.00 | 75 | 1012.7 |
| 20260906133255 | 82 | 279 | 0.0 | 0.0 | 0.00 | 0.00 | 0.00 | 76 | 1012.6 |
| 20260906132751 | 82 | 267 | 0.0 | 0.0 | 0.00 | 0.00 | 0.00 | 76 | 1012.7 |
| 20260906132246 | 82 | 231 | 1.0 | 1.0 | 0.00 | 0.00 | 0.00 | 78 | 1012.6 |
| 20260906131741 | 81 | 271 | 0.0 | 0.0 | 0.00 | 0.00 | 0.00 | 79 | 1012.8 |
| 20260906131236 | 81 | 307 | 0.0 | 0.0 | 0.00 | 0.00 | 0.00 | 80 | 1012.7 |
| 20260906130732 | 80 | 261 | 0.0 | 0.0 | 0.00 | 0.00 | 0.00 | 80 | 1013.0 |
| 20260906130227 | 80 | 307 | 0.0 | 0.0 | 0.00 | 0.00 | 0.00 | 81 | 1012.6 |
| 20260906125725 | 80 | 267 | 0.0 | 0.0 | 0.00 | 0.00 | 0.00 | 82 | 1012.7 |
| 20260906125223 | 79 | 284 | 0.0 | 0.0 | 0.00 | 0.00 | 0.00 | 82 | 1012.6 |
| 20260906124718 | 79 | 302 | 0.0 | 0.0 | 0.00 | 0.00 | 0.00 | 83 | 1012.5 |
| 20260906124214 | 79 | 296 | 0.0 | 0.0 | 0.00 | 0.00 | 0.00 | 83 | 1012.2 |
| 20260906123712 | 79 | 293 | 0.0 | 0.0 | 0.00 | 0.00 | 0.00 | 84 | 1012.3 |
| 20260906123208 | 78 | 287 | 0.0 | 0.0 | 0.00 | 0.00 | 0.00 | 84 | 1012.4 |
| 20260906122707 | 78 | 289 | 0.0 | 0.0 | 0.00 | 0.00 | 0.00 | 84 | 1012.6 |
| 20260906122203 | 78 | 281 | 0.0 | 0.0 | 0.00 | 0.00 | 0.00 | 84 | 1012.4 |
| 20260906121659 | 78 | 288 | 0.0 | 0.0 | 0.00 | 0.00 | 0.00 | 84 | 1012.1 |
| 20260906121155 | 78 | 289 | 0.0 | 0.0 | 0.00 | 0.00 | 0.00 | 84 | 1012.3 |
| 20260906120651 | 78 | 289 | 0.0 | 0.0 | 0.00 | 0.00 | 0.00 | 83 | 1012.0 |
| 20260906120148 | 78 | 289 | 0.0 | 0.0 | 0.00 | 0.00 | 0.00 | 83 | 1012.0 |
| 20260906115648 | 78 | 289 | 0.0 | 0.0 | 0.00 | 0.00 | 0.00 | 82 | 1012.2 |
| 20260906115143 | 79 | 288 | 0.0 | 0.0 | 0.00 | 0.00 | 0.00 | 82 | 1012.0 |
| 20260906114642 | 79 | 291 | 0.0 | 0.0 | 0.00 | 0.00 | 0.00 | 81 | 1012.0 |
| 20260906114137 | 79 | 291 | 0.0 | 0.0 | 0.00 | 0.00 | 0.00 | 81 | 1012.1 |
| 20260906113632 | 79 | 277 | 0.0 | 0.0 | 0.00 | 0.00 | 0.00 | 81 | 1012.0 |
| 20260906113132 | 79 | 286 | 0.0 | 0.0 | 0.00 | 0.00 | 0.00 | 80 | 1012.1 |
| 20260906112631 | 79 | 291 | 0.0 | 0.0 | 0.00 | 0.00 | 0.00 | 80 | 1011.9 |
| 20260906112128 | 79 | 270 | 0.0 | 0.0 | 0.00 | 0.00 | 0.00 | 80 | 1011.8 |
| 20260906111628 | 79 | 272 | 0.0 | 0.0 | 0.00 | 0.00 | 0.00 | 80 | 1011.9 |
| 20260906111123 | 80 | 278 | 0.0 | 0.0 | 0.00 | 0.00 | 0.00 | 80 | 1011.8 |
| 20260906110618 | 80 | 294 | 0.0 | 0.0 | 0.00 | 0.00 | 0.00 | 80 | 1011.8 |
| 20260906110118 | 80 | 303 | 0.0 | 0.0 | 0.00 | 0.00 | 0.00 | 79 | 1011.6 |
| 20260906105612 | 80 | 274 | 0.0 | 0.0 | 0.00 | 0.00 | 0.00 | 79 | 1011.6 |
| 20260906105109 | 80 | 217 | 0.0 | 0.0 | 0.00 | 0.00 | 0.00 | 79 | 1011.6 |
| 20260906104608 | 80 | 226 | 0.0 | 0.0 | 0.00 | 0.00 | 0.00 | 80 | 1011.6 |
| 20260906104101 | 79 | 282 | 0.0 | 0.0 | 0.00 | 0.00 | 0.00 | 80 | 1011.6 |
| 20260906103600 | 79 | 282 | 0.0 | 0.0 | 0.00 | 0.00 | 0.00 | 80 | 1011.6 |
| 20260906103055 | 79 | 283 | 0.0 | 0.0 | 0.00 | 0.00 | 0.00 | 80 | 1011.4 |
| 20260906102555 | 79 | 283 | 0.0 | 0.0 | 0.00 | 0.00 | 0.00 | 80 | 1011.4 |
| 20260906102051 | 80 | 283 | 0.0 | 0.0 | 0.00 | 0.00 | 0.00 | 79 | 1011.4 |
| 20260906101551 | 80 | 279 | 0.0 | 0.0 | 0.00 | 0.00 | 0.00 | 79 | 1011.3 |
| 20260906101045 | 80 | 279 | 0.0 | 0.0 | 0.00 | 0.00 | 0.00 | 78 | 1011.6 |
| 20260906100541 | 80 | 279 | 0.0 | 0.0 | 0.00 | 0.00 | 0.00 | 78 | 1011.4 |
| 20260906100035 | 80 | 277 | 0.0 | 0.0 | 0.00 | 0.00 | 0.00 | 77 | 1011.4 |
| 20260906095530 | 80 | 274 | 0.0 | 0.0 | 0.00 | 0.00 | 0.00 | 77 | 1011.3 |
| 20260906095025 | 81 | 274 | 0.0 | 0.0 | 0.00 | 0.00 | 0.00 | 77 | 1011.5 |
| 20260906094524 | 81 | 268 | 0.0 | 0.0 | 0.00 | 0.00 | 0.00 | 76 | 1011.2 |
| 20260906094020 | 81 | 267 | 0.0 | 0.0 | 0.00 | 0.00 | 0.00 | 75 | 1011.1 |
| 20260906093516 | 81 | 262 | 0.0 | 0.0 | 0.00 | 0.00 | 0.00 | 75 | 1011.2 |
| 20260906093011 | 82 | 264 | 0.0 | 0.0 | 0.00 | 0.00 | 0.00 | 74 | 1011.1 |
| 20260906092511 | 82 | 252 | 0.0 | 0.0 | 0.00 | 0.00 | 0.00 | 74 | 1011.1 |
| 20260906092006 | 82 | 251 | 0.0 | 1.0 | 0.00 | 0.00 | 0.00 | 74 | 1010.8 |
| 20260906091501 | 82 | 241 | 0.0 | 0.0 | 0.00 | 0.00 | 0.00 | 74 | 1011.0 |
| 20260906090958 | 82 | 179 | 0.0 | 2.0 | 0.00 | 0.00 | 0.00 | 74 | 1011.2 |
| 20260906090453 | 82 | 235 | 0.0 | 0.0 | 0.00 | 0.00 | 0.00 | 73 | 1010.8 |
| 20260906085953 | 82 | 226 | 2.0 | 2.0 | 0.00 | 0.00 | 0.00 | 73 | 1010.9 |
| 20260906085452 | 82 | 183 | 0.0 | 1.0 | 0.00 | 0.00 | 0.00 | 73 | 1010.8 |
| 20260906084951 | 82 | 216 | 1.0 | 1.0 | 0.00 | 0.00 | 0.00 | 73 | 1011.0 |
| 20260906084446 | 82 | 200 | 0.0 | 0.0 | 0.00 | 0.00 | 0.00 | 73 | 1010.7 |
| 20260906083945 | 82 | 257 | 0.0 | 0.0 | 0.00 | 0.00 | 0.00 | 73 | 1010.7 |
| 20260906083441 | 83 | 281 | 0.0 | 0.0 | 0.00 | 0.00 | 0.00 | 72 | 1010.9 |
| 20260906082940 | 83 | 243 | 1.0 | 1.0 | 0.00 | 0.00 | 0.00 | 72 | 1010.6 |
| 20260906082436 | 83 | 207 | 0.0 | 1.0 | 0.00 | 0.00 | 0.00 | 72 | 1010.7 |
| 20260906081931 | 83 | 207 | 0.0 | 1.0 | 0.00 | 0.00 | 0.00 | 71 | 1010.9 |
| 20260906081426 | 83 | 260 | 1.0 | 1.0 | 0.00 | 0.00 | 0.00 | 71 | 1010.4 |
| 20260906080923 | 83 | 246 | 0.0 | 0.0 | 0.00 | 0.00 | 0.00 | 71 | 1010.7 |
| 20260906080419 | 83 | 226 | 1.0 | 1.0 | 0.00 | 0.00 | 0.00 | 71 | 1010.8 |
| 20260906075919 | 83 | 224 | 2.0 | 2.0 | 0.00 | 0.00 | 0.00 | 70 | 1010.7 |
| 20260906075414 | 83 | 224 | 0.0 | 0.0 | 0.00 | 0.00 | 0.00 | 70 | 1010.7 |
| 20260906074909 | 83 | 224 | 0.0 | 0.0 | 0.00 | 0.00 | 0.00 | 70 | 1010.8 |
| 20260906074408 | 83 | 200 | 0.0 | 0.0 | 0.00 | 0.00 | 0.00 | 70 | 1010.8 |
| 20260906073907 | 83 | 250 | 0.0 | 0.0 | 0.00 | 0.00 | 0.00 | 70 | 1010.8 |
| 20260906073402 | 83 | 203 | 0.0 | 0.0 | 0.00 | 0.00 | 0.00 | 69 | 1010.9 |
| 20260906072859 | 84 | 243 | 1.0 | 1.0 | 0.00 | 0.00 | 0.00 | 69 | 1010.7 |
| 20260906072354 | 84 | 255 | 0.0 | 0.0 | 0.00 | 0.00 | 0.00 | 68 | 1011.0 |
| 20260906071850 | 84 | 212 | 0.0 | 0.0 | 0.00 | 0.00 | 0.00 | 68 | 1010.9 |
| 20260906071345 | 84 | 263 | 0.0 | 0.0 | 0.00 | 0.00 | 0.00 | 68 | 1011.2 |
| 20260906070841 | 84 | 209 | 0.0 | 0.0 | 0.00 | 0.00 | 0.00 | 67 | 1011.0 |
| 20260906070337 | 84 | 263 | 0.0 | 0.0 | 0.00 | 0.00 | 0.00 | 67 | 1011.2 |
| 20260906065832 | 84 | 259 | 0.0 | 0.0 | 0.00 | 0.00 | 0.00 | 67 | 1011.4 |
| 20260906065326 | 84 | 260 | 0.0 | 0.0 | 0.00 | 0.00 | 0.00 | 66 | 1011.4 |
| 20260906064823 | 84 | 255 | 0.0 | 0.0 | 0.00 | 0.00 | 0.00 | 66 | 1011.1 |
| 20260906064319 | 84 | 255 | 0.0 | 0.0 | 0.00 | 0.00 | 0.00 | 66 | 1011.2 |
| 20260906063818 | 84 | 253 | 0.0 | 0.0 | 0.00 | 0.00 | 0.00 | 66 | 1011.2 |
| 20260906063314 | 85 | 241 | 0.0 | 0.0 | 0.00 | 0.00 | 0.00 | 66 | 1011.4 |
| 20260906062809 | 84 | 234 | 0.0 | 0.0 | 0.00 | 0.00 | 0.00 | 66 | 1011.1 |
| 20260906062308 | 84 | 257 | 0.0 | 0.0 | 0.00 | 0.00 | 0.00 | 66 | 1011.1 |
| 20260906061804 | 85 | 288 | 0.0 | 0.0 | 0.00 | 0.00 | 0.00 | 65 | 1010.9 |
| 20260906061300 | 85 | 268 | 0.0 | 0.0 | 0.00 | 0.00 | 0.00 | 65 | 1011.0 |
| 20260906060755 | 85 | 240 | 0.0 | 0.0 | 0.00 | 0.00 | 0.00 | 65 | 1011.0 |
| 20260906060253 | 85 | 255 | 0.0 | 0.0 | 0.00 | 0.00 | 0.00 | 65 | 1011.1 |
| 20260906055748 | 85 | 248 | 0.0 | 0.0 | 0.00 | 0.00 | 0.00 | 64 | 1011.0 |
| 20260906055243 | 85 | 252 | 0.0 | 0.0 | 0.00 | 0.00 | 0.00 | 64 | 1011.2 |
| 20260906054738 | 85 | 243 | 0.0 | 1.0 | 0.00 | 0.00 | 0.00 | 63 | 1011.2 |
| 20260906054234 | 85 | 209 | 1.0 | 2.0 | 0.00 | 0.00 | 0.00 | 64 | 1011.1 |
| 20260906053730 | 86 | 261 | 0.0 | 0.0 | 0.00 | 0.00 | 0.00 | 63 | 1011.0 |
| 20260906053226 | 86 | 264 | 0.0 | 0.0 | 0.00 | 0.00 | 0.00 | 63 | 1011.1 |
| 20260906052721 | 86 | 249 | 0.0 | 0.0 | 0.00 | 0.00 | 0.00 | 62 | 1011.3 |
| 20260906052217 | 86 | 210 | 0.0 | 1.0 | 0.00 | 0.00 | 0.00 | 62 | 1011.1 |
| 20260906051714 | 86 | 243 | 0.0 | 1.0 | 0.00 | 0.00 | 0.00 | 62 | 1011.0 |
| 20260906051213 | 86 | 257 | 0.0 | 0.0 | 0.00 | 0.00 | 0.00 | 61 | 1011.2 |
| 20260906050708 | 86 | 235 | 0.0 | 0.0 | 0.00 | 0.00 | 0.00 | 61 | 1011.2 |
| 20260906050203 | 87 | 187 | 1.0 | 2.0 | 0.00 | 0.00 | 0.00 | 61 | 1011.2 |
| 20260906045702 | 87 | 175 | 2.0 | 2.0 | 0.00 | 0.00 | 0.00 | 61 | 1011.4 |
| 20260906045157 | 87 | 272 | 1.0 | 2.0 | 0.00 | 0.00 | 0.00 | 61 | 1011.2 |
| 20260906044653 | 87 | 246 | 0.0 | 1.0 | 0.00 | 0.00 | 0.00 | 60 | 1011.0 |
| 20260906044148 | 87 | 220 | 1.0 | 1.0 | 0.00 | 0.00 | 0.00 | 60 | 1011.2 |
| 20260906043644 | 87 | 183 | 2.0 | 3.0 | 0.00 | 0.00 | 0.00 | 60 | 1011.2 |
| 20260906043139 | 87 | 196 | 2.0 | 2.0 | 0.00 | 0.00 | 0.00 | 59 | 1011.2 |
| 20260906042639 | 87 | 254 | 1.0 | 1.0 | 0.00 | 0.00 | 0.00 | 59 | 1011.2 |
| 20260906042133 | 87 | 191 | 2.0 | 2.0 | 0.00 | 0.00 | 0.00 | 59 | 1010.9 |
| 20260906041629 | 87 | 163 | 1.0 | 2.0 | 0.00 | 0.00 | 0.00 | 59 | 1011.1 |
| 20260906041130 | 87 | 167 | 3.0 | 4.0 | 0.00 | 0.00 | 0.00 | 58 | 1011.1 |
| 20260906040625 | 88 | 272 | 2.0 | 2.0 | 0.00 | 0.00 | 0.00 | 58 | 1011.0 |
| 20260906040121 | 88 | 188 | 2.0 | 3.0 | 0.00 | 0.00 | 0.00 | 57 | 1010.8 |
| 20260906035616 | 88 | 228 | 1.0 | 2.0 | 0.00 | 0.00 | 0.00 | 57 | 1010.9 |
| 20260906035111 | 88 | 199 | 0.0 | 2.0 | 0.00 | 0.00 | 0.00 | 57 | 1010.9 |
| 20260906034605 | 88 | 348 | 1.0 | 2.0 | 0.00 | 0.00 | 0.00 | 56 | 1011.2 |
| 20260906034100 | 88 | 248 | 1.0 | 1.0 | 0.00 | 0.00 | 0.00 | 56 | 1011.3 |
| 20260906033556 | 88 | 269 | 0.0 | 1.0 | 0.00 | 0.00 | 0.00 | 55 | 1011.1 |
| 20260906033051 | 89 | 261 | 0.0 | 0.0 | 0.00 | 0.00 | 0.00 | 55 | 1011.0 |
| 20260906032547 | 89 | 266 | 1.0 | 1.0 | 0.00 | 0.00 | 0.00 | 55 | 1011.1 |
| 20260906032042 | 89 | 247 | 0.0 | 1.0 | 0.00 | 0.00 | 0.00 | 54 | 1010.9 |
| 20260906031537 | 89 | 195 | 1.0 | 2.0 | 0.00 | 0.00 | 0.00 | 54 | 1011.1 |
| 20260906031033 | 89 | 224 | 2.0 | 3.0 | 0.00 | 0.00 | 0.00 | 54 | 1011.1 |
| 20260906030532 | 89 | 166 | 2.0 | 2.0 | 0.00 | 0.00 | 0.00 | 54 | 1011.0 |
| 20260906030032 | 89 | 220 | 1.0 | 1.0 | 0.00 | 0.00 | 0.00 | 53 | 1011.0 |
| 20260906025531 | 89 | 141 | 3.0 | 4.0 | 0.00 | 0.00 | 0.00 | 53 | 1011.3 |
| 20260906025030 | 89 | 153 | 2.0 | 2.0 | 0.00 | 0.00 | 0.00 | 53 | 1010.9 |
| 20260906024525 | 89 | 161 | 1.0 | 2.0 | 0.00 | 0.00 | 0.00 | 54 | 1010.9 |
| 20260906024025 | 90 | 230 | 1.0 | 1.0 | 0.00 | 0.00 | 0.00 | 53 | 1011.1 |
| 20260906023522 | 90 | 216 | 1.0 | 2.0 | 0.00 | 0.00 | 0.00 | 53 | 1010.8 |
| 20260906023016 | 90 | 213 | 1.0 | 1.0 | 0.00 | 0.00 | 0.00 | 52 | 1010.6 |
| 20260906022511 | 90 | 227 | 1.0 | 1.0 | 0.00 | 0.00 | 0.00 | 52 | 1010.5 |
| 20260906022007 | 90 | 213 | 2.0 | 2.0 | 0.00 | 0.00 | 0.00 | 51 | 1010.6 |
| 20260906021502 | 91 | 218 | 2.0 | 3.0 | 0.00 | 0.00 | 0.00 | 51 | 1010.4 |
| 20260906020956 | 91 | 225 | 2.0 | 2.0 | 0.00 | 0.00 | 0.00 | 50 | 1010.1 |
| 20260906020450 | 91 | 149 | 3.0 | 4.0 | 0.00 | 0.00 | 0.00 | 49 | 1010.3 |
| 20260906015950 | 92 | 224 | 4.0 | 7.0 | 0.00 | 0.00 | 0.00 | 49 | 1010.5 |
| 20260906015449 | 92 | 146 | 3.0 | 4.0 | 0.00 | 0.00 | 0.00 | 47 | 1010.2 |
| 20260906014949 | 93 | 174 | 2.0 | 2.0 | 0.00 | 0.00 | 0.00 | 46 | 1010.1 |
| 20260906014449 | 93 | 204 | 4.0 | 4.0 | 0.00 | 0.00 | 0.00 | 46 | 1009.8 |
| 20260906013945 | 94 | 196 | 4.0 | 6.0 | 0.00 | 0.00 | 0.00 | 46 | 1010.1 |
| 20260906013440 | 94 | 211 | 3.0 | 3.0 | 0.00 | 0.00 | 0.00 | 46 | 1010.0 |
| 20260906012937 | 94 | 243 | 3.0 | 4.0 | 0.00 | 0.00 | 0.00 | 45 | 1009.7 |
| 20260906012436 | 95 | 189 | 4.0 | 7.0 | 0.00 | 0.00 | 0.00 | 44 | 1009.6 |
| 20260906011936 | 95 | 210 | 3.0 | 3.0 | 0.00 | 0.00 | 0.00 | 41 | 1009.4 |
| 20260906011432 | 95 | 212 | 1.0 | 2.0 | 0.00 | 0.00 | 0.00 | 40 | 1009.3 |
| 20260906010927 | 96 | 250 | 1.0 | 1.0 | 0.00 | 0.00 | 0.00 | 40 | 1009.3 |
| 20260906010422 | 96 | 234 | 1.0 | 2.0 | 0.00 | 0.00 | 0.00 | 40 | 1009.3 |
| 20260906005918 | 96 | 244 | 1.0 | 1.0 | 0.00 | 0.00 | 0.00 | 39 | 1009.3 |
| 20260906005417 | 96 | 234 | 2.0 | 3.0 | 0.00 | 0.00 | 0.00 | 39 | 1009.3 |
| 20260906004916 | 96 | 223 | 2.0 | 3.0 | 0.00 | 0.00 | 0.00 | 39 | 1009.2 |
| 20260906004410 | 97 | 203 | 2.0 | 3.0 | 0.00 | 0.00 | 0.00 | 38 | 1009.1 |
| 20260906003906 | 97 | 208 | 1.0 | 2.0 | 0.00 | 0.00 | 0.00 | 38 | 1009.2 |
| 20260906003401 | 97 | 251 | 1.0 | 2.0 | 0.00 | 0.00 | 0.00 | 38 | 1009.3 |
| 20260906002856 | 98 | 234 | 1.0 | 2.0 | 0.00 | 0.00 | 0.00 | 37 | 1009.0 |
| 20260906002356 | 98 | 229 | 0.0 | 0.0 | 0.00 | 0.00 | 0.00 | 37 | 1009.2 |
| 20260906001851 | 98 | 219 | 0.0 | 1.0 | 0.00 | 0.00 | 0.00 | 37 | 1009.2 |
| 20260906001347 | 99 | 146 | 1.0 | 2.0 | 0.00 | 0.00 | 0.00 | 37 | 1009.2 |
| 20260906000842 | 99 | 243 | 0.0 | 0.0 | 0.00 | 0.00 | 0.00 | 36 | 1009.0 |
| 20260906000342 | 99 | 204 | 1.0 | 1.0 | 0.00 | 0.00 | 0.00 | 36 | 1008.9 |
| 20260905235842 | 100 | 198 | 4.0 | 4.0 | 0.00 | 0.00 | 0.00 | 35 | 1009.0 |
| 20260905235336 | 100 | 236 | 0.0 | 0.0 | 0.00 | 0.00 | 0.00 | 35 | 1008.9 |
| 20260905234832 | 101 | 282 | 0.0 | 0.0 | 0.00 | 0.00 | 0.00 | 34 | 1008.9 |
| 20260905234327 | 102 | 224 | 1.0 | 1.0 | 0.00 | 0.00 | 0.00 | 33 | 1008.7 |
| 20260905233822 | 102 | 325 | 0.0 | 0.0 | 0.00 | 0.00 | 0.00 | 32 | 1009.0 |
| 20260905233317 | 104 | 107 | 1.0 | 2.0 | 0.00 | 0.00 | 0.00 | 32 | 1008.9 |
| 20260905232816 | 106 | 219 | 2.0 | 2.0 | 0.00 | 0.00 | 0.00 | 30 | 1009.0 |
| 20260905232313 | 106 | 333 | 1.0 | 1.0 | 0.00 | 0.00 | 0.00 | 29 | 1008.9 |
| 20260905231808 | 108 | 211 | 3.0 | 3.0 | 0.00 | 0.00 | 0.00 | 28 | 1008.9 |
| 20260905231303 | 109 | 298 | 1.0 | 1.0 | 0.00 | 0.00 | 0.00 | 27 | 1009.0 |
| 20260905230759 | 110 | 223 | 1.0 | 2.0 | 0.00 | 0.00 | 0.00 | 27 | 1008.9 |
| 20260905230257 | 110 | 261 | 0.0 | 1.0 | 0.00 | 0.00 | 0.00 | 27 | 1008.8 |
| 20260905225757 | 111 | 253 | 1.0 | 1.0 | 0.00 | 0.00 | 0.00 | 26 | 1008.9 |
| 20260905225252 | 111 | 265 | 1.0 | 2.0 | 0.00 | 0.00 | 0.00 | 26 | 1008.7 |
| 20260905224751 | 111 | 323 | 1.0 | 1.0 | 0.00 | 0.00 | 0.00 | 26 | 1009.0 |